Time;durP1;ratioP1;P1;durP2;ratioP2;P2;SDS_P1;SDS_P2;PMS_P1;PMS_P2;Temp;Humidity;BMP_temperature;BMP_pressure;BME280_temperature;BME280_humidity;BME280_pressure;Samples;Min_cycle;Max_cycle;Signal;HPM_P1;HPM_P2
2022/12/22 03:26:45;;;;;;;31.10;20.58;;;;;;;3.72;82.01;100013.38;6238333;23;20080;-70
2022/12/22 03:29:11;;;;;;;33.03;21.50;;;;;;;3.83;81.59;100015.97;6239231;23;20024;-70
2022/12/22 03:31:38;;;;;;;32.40;21.65;;;;;;;3.80;81.64;100011.75;6239005;22;20032;-70
2022/12/22 03:34:04;;;;;;;27.77;19.27;;;;;;;3.97;80.57;100028.84;6239854;23;20032;-69
2022/12/22 03:36:31;;;;;;;30.20;20.77;;;;;;;4.00;80.85;100022.41;6239697;23;20028;-69
2022/12/22 03:38:57;;;;;;;29.05;20.10;;;;;;;3.86;81.22;100016.53;6239634;23;20027;-69
2022/12/22 03:46:54;;;;;;;31.50;20.85;;;;;;;4.07;80.48;100008.50;6238091;23;20016;-69
2022/12/22 03:49:21;;;;;;;28.35;20.88;;;;;;;4.02;81.53;100001.91;6239423;23;20039;-69
2022/12/22 03:51:50;;;;;;;30.88;21.10;;;;;;;3.86;81.41;99995.31;6239770;22;20012;-69
2022/12/22 03:54:18;;;;;;;35.65;21.60;;;;;;;4.13;81.31;99991.16;6239939;23;20020;-69
2022/12/22 03:56:46;;;;;;;29.95;21.17;;;;;;;4.20;80.97;99992.28;6238950;23;20092;-68
2022/12/22 03:59:12;;;;;;;32.28;21.88;;;;;;;4.27;80.62;99987.28;6238436;23;20025;-69
2022/12/22 04:01:42;;;;;;;32.55;21.45;;;;;;;4.21;81.15;99979.84;6237709;23;20044;-70
2022/12/22 04:04:10;;;;;;;30.80;22.50;;;;;;;4.09;80.84;99973.84;6236047;23;20031;-69
2022/12/22 04:06:37;;;;;;;33.85;22.42;;;;;;;4.14;81.17;99958.34;6224401;23;20050;-69
2022/12/22 04:09:04;;;;;;;34.47;22.63;;;;;;;4.15;81.05;99960.03;6226352;23;20075;-69
2022/12/22 04:14:15;;;;;;;29.65;21.92;;;;;;;4.23;81.32;99954.84;6231090;23;20076;-69
2022/12/22 04:16:42;;;;;;;35.63;23.38;;;;;;;3.84;83.00;99952.13;6230027;23;20031;-69
2022/12/22 04:19:08;;;;;;;41.25;24.75;;;;;;;3.74;84.19;99948.59;6230231;23;20025;-68
2022/12/22 04:21:36;;;;;;;37.72;25.00;;;;;;;3.62;83.91;99949.69;6230495;23;20079;-70
2022/12/22 04:24:03;;;;;;;36.95;25.35;;;;;;;3.71;84.21;99945.38;6227289;23;20036;-69
2022/12/22 04:26:30;;;;;;;42.33;26.38;;;;;;;3.59;84.51;99936.69;6230588;23;20024;-70
2022/12/22 04:28:56;;;;;;;40.03;26.65;;;;;;;3.69;84.71;99940.22;6230878;23;20021;-69
2022/12/22 04:31:23;;;;;;;39.80;26.60;;;;;;;4.02;83.03;99946.16;6229235;23;20072;-69
2022/12/22 04:33:50;;;;;;;39.08;27.52;;;;;;;3.69;84.13;99934.06;6227023;23;20024;-70
2022/12/22 04:36:17;;;;;;;43.70;29.17;;;;;;;3.32;85.27;99924.03;6229167;23;20052;-69
2022/12/22 04:38:44;;;;;;;47.90;29.30;;;;;;;3.96;83.74;99930.78;6229756;23;20051;-69
2022/12/22 04:41:10;;;;;;;45.53;28.77;;;;;;;3.48;84.53;99912.91;6230653;23;20076;-71
2022/12/22 04:43:37;;;;;;;48.70;30.20;;;;;;;3.69;84.91;99911.06;6230582;23;20039;-70
2022/12/22 04:46:04;;;;;;;51.15;30.70;;;;;;;3.85;84.28;99921.97;6232118;23;20024;-69
2022/12/22 04:48:33;;;;;;;49.65;30.88;;;;;;;4.20;82.73;99930.41;6233457;23;20024;-70
2022/12/22 04:51:00;;;;;;;48.78;29.52;;;;;;;4.22;82.83;99926.63;6234896;23;20027;-70
2022/12/22 04:53:28;;;;;;;49.63;29.23;;;;;;;3.89;84.12;99916.38;6233534;23;20035;-69
2022/12/22 04:56:00;;;;;;;54.10;31.60;;;;;;;3.93;84.36;99909.81;6235057;23;20040;-69
2022/12/22 04:58:28;;;;;;;51.80;32.08;;;;;;;3.81;84.62;99901.97;6235057;23;20036;-70
2022/12/22 05:00:54;;;;;;;52.20;32.28;;;;;;;3.81;84.60;99899.34;6234033;23;20047;-70
2022/12/22 05:03:21;;;;;;;56.97;32.33;;;;;;;3.80;nan;99884.41;6234412;23;20104;-69
2022/12/22 05:05:48;;;;;;;52.05;32.05;;;;;;;3.51;86.31;99883.47;6235557;23;20028;-70
2022/12/22 05:08:15;;;;;;;55.75;32.70;;;;;;;3.57;86.21;99877.63;6234449;23;20058;-70
2022/12/22 05:10:41;;;;;;;52.72;33.97;;;;;;;3.63;86.17;99883.25;6235273;23;20123;-71
2022/12/22 05:13:08;;;;;;;53.00;33.42;;;;;;;3.61;86.69;99884.34;6235820;23;20044;-70
2022/12/22 05:15:35;;;;;;;61.10;34.63;;;;;;;3.74;85.81;99871.69;6235536;23;20039;-70
2022/12/22 05:18:02;;;;;;;58.83;34.15;;;;;;;3.96;85.29;99867.91;6236813;23;20020;-69
2022/12/22 05:20:29;;;;;;;55.50;35.42;;;;;;;3.95;85.35;99870.72;6237658;23;20032;-70
2022/12/22 05:22:57;;;;;;;60.92;34.38;;;;;;;3.80;85.70;99872.94;6238543;23;20024;-69
2022/12/22 05:25:24;;;;;;;61.50;35.00;;;;;;;3.81;85.59;99864.84;6238852;23;20517;-70
2022/12/22 05:27:56;;;;;;;61.72;36.05;;;;;;;3.82;85.62;99863.03;6238052;23;20015;-69
2022/12/22 05:30:23;;;;;;;58.67;36.42;;;;;;;4.26;84.32;99856.34;6238234;23;20040;-70
2022/12/22 05:32:50;;;;;;;57.92;35.80;;;;;;;3.94;84.98;99863.75;6238533;23;20051;-70
2022/12/22 05:35:16;;;;;;;64.97;34.03;;;;;;;3.84;86.13;99853.13;6238511;23;20047;-71
2022/12/22 05:37:43;;;;;;;58.05;35.25;;;;;;;3.99;85.85;99850.88;6238976;23;20076;-70
2022/12/22 05:40:10;;;;;;;61.60;35.58;;;;;;;4.16;86.24;99852.00;6238743;23;20069;-70
2022/12/22 05:42:38;;;;;;;59.22;34.30;;;;;;;4.25;84.98;99844.06;6239717;23;20072;-69
2022/12/22 05:45:13;;;;;;;63.13;36.22;;;;;;;3.68;86.50;99831.59;6237893;23;20025;-71
2022/12/22 05:47:42;;;;;;;61.15;37.47;;;;;;;3.73;86.70;99824.91;6238984;23;20001;-70
2022/12/22 05:50:10;;;;;;;68.70;37.35;;;;;;;3.94;86.08;99831.91;6239932;23;20043;-69
2022/12/22 05:52:37;;;;;;;67.35;37.28;;;;;;;4.10;85.93;99827.72;6238742;23;20024;-70
2022/12/22 05:55:03;;;;;;;69.05;37.05;;;;;;;3.99;86.39;99819.03;6239228;23;20064;-70
2022/12/22 05:57:30;;;;;;;66.40;37.88;;;;;;;4.11;86.56;99817.94;6241164;23;20024;-71
2022/12/22 05:59:56;;;;;;;60.67;36.90;;;;;;;3.95;86.97;99822.97;6239150;22;20020;-70
2022/12/22 06:02:23;;;;;;;61.33;38.20;;;;;;;4.12;85.87;99819.59;6239978;23;20052;-70
2022/12/22 06:04:50;;;;;;;60.30;36.88;;;;;;;3.91;86.42;99814.44;6239109;23;20032;-69
2022/12/22 06:07:16;;;;;;;62.88;38.00;;;;;;;4.15;85.82;99814.03;6240466;23;20012;-70
2022/12/22 06:09:43;;;;;;;63.47;35.47;;;;;;;4.25;85.52;99809.53;6240038;22;20043;-70
2022/12/22 06:12:10;;;;;;;58.95;36.75;;;;;;;4.19;86.08;99810.09;6240786;23;20024;-70
2022/12/22 06:14:36;;;;;;;67.15;37.72;;;;;;;4.09;86.30;99814.56;6240453;22;20093;-70
2022/12/22 06:17:02;;;;;;;63.08;36.05;;;;;;;4.09;85.95;99811.91;6241456;23;20032;-69
2022/12/22 06:19:29;;;;;;;73.20;37.72;;;;;;;3.92;86.34;99796.69;6241182;23;20052;-72
2022/12/22 06:21:56;;;;;;;67.13;37.33;;;;;;;3.94;86.96;99792.09;6240959;23;20020;-70
2022/12/22 06:24:22;;;;;;;65.70;36.88;;;;;;;3.95;86.49;99783.16;6240859;22;20084;-71
2022/12/22 06:26:48;;;;;;;62.92;36.03;;;;;;;3.98;86.31;99781.06;6240514;22;20033;-70
2022/12/22 06:29:15;;;;;;;61.00;35.80;;;;;;;3.98;86.15;99788.19;6240173;23;20069;-71
2022/12/22 06:31:42;;;;;;;60.55;35.45;;;;;;;4.33;85.12;99785.75;6239811;23;20036;-70
2022/12/22 06:34:09;;;;;;;66.60;35.35;;;;;;;4.38;85.00;99792.47;6239455;22;20024;-70
2022/12/22 06:36:37;;;;;;;62.13;34.92;;;;;;;4.46;84.90;99790.81;6241104;23;20050;-70
2022/12/22 06:39:05;;;;;;;71.68;36.90;;;;;;;4.44;85.36;99794.56;6242105;22;20004;-70
2022/12/22 06:44:17;;;;;;;58.20;34.65;;;;;;;4.24;86.05;99781.31;6239920;22;20060;-73
2022/12/22 06:46:43;;;;;;;60.08;35.38;;;;;;;4.40;85.44;99787.88;6240676;22;20020;-73
2022/12/22 06:49:10;;;;;;;69.65;33.80;;;;;;;4.44;84.73;99787.44;6240197;22;20060;-72
2022/12/22 06:51:37;;;;;;;62.65;35.75;;;;;;;4.28;86.05;99780.06;6240095;22;20024;-73
2022/12/22 06:54:03;;;;;;;59.67;34.53;;;;;;;4.32;85.43;99777.94;6241162;22;20069;-72
2022/12/22 06:56:30;;;;;;;62.88;35.78;;;;;;;4.29;85.78;99767.59;6236716;22;20020;-73
2022/12/22 06:58:57;;;;;;;63.03;34.75;;;;;;;4.38;85.43;99776.56;6240608;22;20004;-72
2022/12/22 07:01:23;;;;;;;65.20;34.88;;;;;;;4.58;84.81;99789.63;6240069;22;20008;-73
2022/12/22 07:03:50;;;;;;;62.03;35.05;;;;;;;4.48;85.44;99777.38;6240578;22;20036;-72
2022/12/22 07:06:17;;;;;;;65.75;36.75;;;;;;;4.56;85.04;99780.16;6239710;22;20029;-72
2022/12/22 07:08:47;;;;;;;59.65;34.78;;;;;;;4.59;84.65;99785.19;6240374;22;20040;-73
2022/12/22 07:11:14;;;;;;;66.97;35.90;;;;;;;4.52;84.93;99770.78;6241185;22;20009;-73
2022/12/22 07:13:41;;;;;;;57.05;34.22;;;;;;;4.45;85.10;99769.69;6240369;22;20053;-73
2022/12/22 07:16:09;;;;;;;61.80;35.13;;;;;;;4.48;85.03;99761.44;6240032;22;20056;-73
2022/12/22 07:18:39;;;;;;;65.65;35.20;;;;;;;4.58;85.00;99763.06;6240555;22;20009;-73
2022/12/22 07:21:09;;;;;;;60.65;34.70;;;;;;;4.56;84.82;99764.22;6236127;22;20025;-73
2022/12/22 07:23:36;;;;;;;68.50;36.28;;;;;;;4.45;85.12;99767.88;6239800;22;20019;-73
2022/12/22 07:26:04;;;;;;;60.15;33.78;;;;;;;4.37;85.73;99758.91;6241105;22;20020;-73
2022/12/22 07:28:33;;;;;;;57.40;34.03;;;;;;;4.52;85.21;99762.81;6241356;22;20017;-73
2022/12/22 07:30:59;;;;;;;57.17;34.90;;;;;;;4.55;84.71;99766.00;6239567;22;20023;-73
2022/12/22 07:33:26;;;;;;;65.72;34.95;;;;;;;4.65;84.67;99768.66;6240515;22;20029;-73
2022/12/22 07:36:07;;;;;;;62.88;33.78;;;;;;;4.51;84.96;99764.63;6225786;22;20021;-73
2022/12/22 07:38:36;;;;;;;64.90;34.03;;;;;;;4.66;84.82;99765.03;6239136;22;20036;-73
2022/12/22 07:42:43;;;;;;;60.28;33.80;;;;;;;4.54;84.26;99758.19;6241045;22;20043;-73
2022/12/22 07:43:56;;;;;;;59.22;33.60;;;;;;;4.63;84.83;99757.34;6239295;22;20494;-72
2022/12/22 07:46:24;;;;;;;59.70;33.88;;;;;;;4.48;85.04;99750.81;6240537;23;20005;-73
2022/12/22 07:51:39;;;;;;;57.95;33.33;;;;;;;4.61;84.81;99734.56;6239962;22;20015;-73
2022/12/22 07:54:08;;;;;;;56.95;33.70;;;;;;;4.52;84.80;99744.22;6240603;22;20021;-73
2022/12/22 07:56:36;;;;;;;55.03;33.58;;;;;;;4.60;84.91;99744.34;6240847;22;20008;-73
2022/12/22 07:59:06;;;;;;;58.30;33.47;;;;;;;4.67;84.76;99740.13;6240422;22;20009;-74
2022/12/22 08:01:33;;;;;;;60.28;32.50;;;;;;;4.62;84.53;99731.75;6240361;22;20005;-73
2022/12/22 08:03:59;;;;;;;55.90;31.08;;;;;;;4.67;84.61;99734.81;6237559;22;20032;-73
2022/12/22 08:06:26;;;;;;;55.90;32.25;;;;;;;4.60;84.61;99731.06;6240172;22;20526;-73
2022/12/22 08:14:10;;;;;;;53.67;30.40;;;;;;;4.67;84.71;99726.00;6155341;22;20039;-75
2022/12/22 08:16:37;;;;;;;52.05;30.48;;;;;;;4.73;84.32;99722.78;6192755;23;20036;-74
2022/12/22 08:19:03;;;;;;;53.33;29.35;;;;;;;4.49;85.23;99723.28;6208541;23;20081;-74
2022/12/22 08:21:30;;;;;;;51.08;29.65;;;;;;;4.69;84.98;99727.50;6208120;23;20025;-73
2022/12/22 08:23:57;;;;;;;51.00;29.58;;;;;;;4.69;84.47;99718.72;6193088;23;20057;-74
2022/12/22 08:26:29;;;;;;;51.42;29.98;;;;;;;4.68;84.59;99720.53;6205656;23;20029;-75
2022/12/22 08:29:09;;;;;;;50.60;29.77;;;;;;;4.68;84.69;99712.56;6206738;23;20025;-75
2022/12/22 08:31:37;;;;;;;55.75;29.27;;;;;;;4.60;84.46;99716.94;6203823;23;20032;-75
2022/12/22 08:34:06;;;;;;;47.88;29.70;;;;;;;4.48;85.34;99703.84;6199627;23;20040;-75
2022/12/22 08:36:37;;;;;;;51.67;29.35;;;;;;;4.66;85.21;99706.56;6191863;23;20028;-74
2022/12/22 08:39:03;;;;;;;46.50;30.00;;;;;;;4.56;85.29;99711.94;6205803;23;20048;-74
2022/12/22 08:41:49;;;;;;;47.80;29.10;;;;;;;4.74;85.00;99705.84;6203795;23;20025;-75
2022/12/22 08:44:37;;;;;;;47.55;28.60;;;;;;;4.80;84.67;99703.44;6204928;23;20017;-74
2022/12/22 08:47:04;;;;;;;49.50;28.95;;;;;;;4.74;84.64;99698.69;6203714;23;20335;-74
2022/12/22 08:49:39;;;;;;;44.10;27.77;;;;;;;4.90;84.43;99694.53;6202638;23;20048;-73
2022/12/22 08:52:06;;;;;;;50.00;27.85;;;;;;;4.91;84.30;99690.94;6203086;23;20021;-74
2022/12/22 08:54:40;;;;;;;48.25;28.27;;;;;;;4.83;84.38;99688.97;6201093;23;20076;-74
2022/12/22 08:57:06;;;;;;;48.90;29.10;;;;;;;4.94;84.47;99693.28;6198806;23;20024;-74
2022/12/22 08:59:33;;;;;;;45.97;27.08;;;;;;;4.67;85.13;99687.00;6198019;23;20017;-74
2022/12/22 09:02:03;;;;;;;44.00;27.52;;;;;;;4.69;85.08;99682.34;6194451;23;20501;-74
2022/12/22 09:04:32;;;;;;;58.45;29.35;;;;;;;4.91;85.00;99680.28;6192114;23;20443;-74
2022/12/22 09:07:01;;;;;;;49.08;26.80;;;;;;;4.94;84.56;99674.69;6189757;23;20029;-74
2022/12/22 09:09:31;;;;;;;42.50;27.08;;;;;;;4.73;84.72;99677.59;6189045;23;20093;-74
2022/12/22 09:11:58;;;;;;;43.10;26.48;;;;;;;4.74;85.20;99671.28;6188929;23;20052;-74
2022/12/22 09:14:25;;;;;;;45.60;27.25;;;;;;;4.86;84.83;99671.91;6188786;23;20017;-74
2022/12/22 09:16:52;;;;;;;51.78;28.17;;;;;;;4.88;84.59;99662.81;6187861;23;20045;-74
2022/12/22 09:19:18;;;;;;;48.13;27.60;;;;;;;4.86;84.39;99666.59;6185883;23;20021;-74
2022/12/22 09:21:45;;;;;;;44.63;26.20;;;;;;;4.85;84.53;99664.94;6187583;23;20035;-74
2022/12/22 09:24:12;;;;;;;42.13;25.58;;;;;;;4.88;85.03;99664.66;6189059;23;20017;-74
2022/12/22 09:26:39;;;;;;;41.97;25.05;;;;;;;4.94;84.76;99661.41;6193450;23;20451;-73
2022/12/22 09:29:06;;;;;;;47.58;26.17;;;;;;;4.81;84.77;99656.44;6194640;23;20024;-74
2022/12/22 09:31:33;;;;;;;43.80;25.48;;;;;;;4.89;84.63;99650.38;6192606;23;20025;-74
2022/12/22 09:33:59;;;;;;;38.55;25.50;;;;;;;5.03;84.86;99655.16;6189031;23;20083;-74
2022/12/22 09:36:29;;;;;;;43.55;26.20;;;;;;;5.00;84.56;99652.78;6187628;23;20032;-75
2022/12/22 09:38:56;;;;;;;40.15;24.45;;;;;;;5.07;84.00;99655.69;6193633;23;20044;-73
2022/12/22 09:41:33;;;;;;;39.03;24.70;;;;;;;5.16;83.44;99657.47;6195955;23;20032;-74
2022/12/22 09:44:21;;;;;;;37.33;24.25;;;;;;;5.11;84.09;99643.75;6180359;23;20052;-73
2022/12/22 09:46:49;;;;;;;40.83;23.65;;;;;;;5.10;84.14;99642.94;6187679;23;20025;-73
2022/12/22 09:49:17;;;;;;;36.92;23.48;;;;;;;5.07;83.68;99637.91;6190107;23;20017;-73
2022/12/22 09:51:48;;;;;;;41.17;24.33;;;;;;;4.95;84.21;99631.16;6189136;23;20083;-74
2022/12/22 09:54:15;;;;;;;38.55;25.02;;;;;;;5.01;85.12;99631.41;6184506;23;20100;-73
2022/12/22 09:56:42;;;;;;;48.33;24.63;;;;;;;5.18;84.41;99632.41;6192159;23;20029;-73
2022/12/22 09:59:14;;;;;;;37.95;24.30;;;;;;;5.16;84.30;99634.34;6192268;23;20040;-74
2022/12/22 10:01:57;;;;;;;39.70;23.95;;;;;;;5.42;83.55;99631.78;6194646;23;20032;-73
2022/12/22 10:05:04;;;;;;;39.38;23.92;;;;;;;5.28;83.48;99626.97;6194724;23;20029;-74
2022/12/22 10:07:33;;;;;;;40.15;23.52;;;;;;;5.23;83.61;99627.44;6196318;23;20047;-74
2022/12/22 10:10:26;;;;;;;38.22;23.30;;;;;;;5.14;83.94;99624.84;6196091;23;20454;-74
2022/12/22 10:12:55;;;;;;;39.17;23.55;;;;;;;5.21;84.23;99625.91;6183701;23;20013;-75
2022/12/22 10:15:22;;;;;;;36.53;22.00;;;;;;;5.25;83.56;99628.13;6171735;23;20017;-74
2022/12/22 10:17:50;;;;;;;40.63;23.77;;;;;;;5.18;84.13;99620.91;6198988;23;20021;-73
2022/12/22 10:20:20;;;;;;;40.38;24.13;;;;;;;5.02;84.16;99616.28;6198418;23;20031;-74
2022/12/22 10:22:50;;;;;;;40.85;23.63;;;;;;;5.47;83.49;99620.66;6197227;23;20021;-73
2022/12/22 10:26:06;;;;;;;38.20;23.75;;;;;;;5.25;83.89;99616.66;6199029;23;20052;-73
2022/12/22 10:29:05;;;;;;;36.55;23.13;;;;;;;5.29;84.20;99608.22;6147780;23;20021;-73
2022/12/22 10:31:53;;;;;;;37.13;21.88;;;;;;;5.38;83.65;99605.63;6197714;23;20025;-74
2022/12/22 10:34:20;;;;;;;34.83;21.75;;;;;;;5.43;83.71;99592.72;6196164;23;20361;-73
2022/12/22 10:36:49;;;;;;;42.65;22.05;;;;;;;5.51;83.54;99592.75;6195591;23;20025;-73
2022/12/22 10:39:25;;;;;;;29.15;20.95;;;;;;;5.44;83.30;99584.56;6196286;23;20032;-73
2022/12/22 10:41:54;;;;;;;33.03;21.27;;;;;;;5.64;82.94;99598.50;6195524;23;20025;-73
2022/12/22 10:44:24;;;;;;;36.47;22.25;;;;;;;5.61;82.83;99590.00;6194721;23;20427;-73
2022/12/22 10:46:55;;;;;;;34.40;22.00;;;;;;;5.64;83.24;99584.38;6193696;23;20021;-74
2022/12/22 10:49:28;;;;;;;31.58;20.73;;;;;;;5.62;83.17;99581.84;6190160;23;20081;-73
2022/12/22 10:52:13;;;;;;;32.60;19.75;;;;;;;5.43;83.63;99579.41;6187523;23;20013;-74
2022/12/22 10:54:41;;;;;;;30.80;20.65;;;;;;;5.51;83.40;99582.13;6202027;23;20013;-74
2022/12/22 10:57:15;;;;;;;35.30;20.40;;;;;;;5.82;82.49;99581.66;6201928;23;20049;-74
2022/12/22 10:59:58;;;;;;;37.92;20.80;;;;;;;5.72;82.72;99579.94;6201093;23;20029;-73
2022/12/22 11:02:38;;;;;;;32.78;18.63;;;;;;;5.52;83.31;99575.81;6201069;23;20028;-74
2022/12/22 11:05:10;;;;;;;31.30;19.90;;;;;;;5.68;83.00;99570.59;6201283;23;20032;-74
2022/12/22 11:07:40;;;;;;;28.98;19.02;;;;;;;5.75;82.84;99576.13;6202047;23;20025;-74
2022/12/22 11:10:19;;;;;;;31.38;18.52;;;;;;;5.60;83.38;99564.41;6202371;23;20040;-74
2022/12/22 11:13:01;;;;;;;28.77;18.20;;;;;;;5.67;83.42;99568.94;6204031;23;20025;-73
2022/12/22 11:15:46;;;;;;;35.00;19.25;;;;;;;5.68;83.45;99559.94;6202064;23;20025;-74
2022/12/22 11:18:28;;;;;;;42.28;19.20;;;;;;;5.66;83.15;99561.91;6204569;23;20025;-74
2022/12/22 11:21:07;;;;;;;36.00;17.88;;;;;;;5.74;83.09;99556.66;6205035;23;20012;-74
2022/12/22 11:23:55;;;;;;;33.10;18.17;;;;;;;5.95;82.62;99552.78;6204432;23;20025;-75
2022/12/22 11:26:58;;;;;;;27.88;17.70;;;;;;;6.03;82.16;99544.84;6202046;23;20080;-74
2022/12/22 11:29:54;;;;;;;26.05;16.25;;;;;;;5.90;82.31;99553.25;6201367;23;20044;-73
2022/12/22 11:32:30;;;;;;;28.58;17.33;;;;;;;5.84;82.64;99550.41;6200726;23;20025;-74
2022/12/22 11:35:11;;;;;;;24.48;16.90;;;;;;;5.89;82.64;99550.75;6201022;23;20332;-74
2022/12/22 11:37:47;;;;;;;;;;;;;;;5.99;82.53;99552.31;6200098;23;20035;-75
2022/12/22 11:40:27;;;;;;;27.25;16.70;;;;;;;5.97;82.92;99556.09;6200483;23;19924;-74
2022/12/22 11:43:14;;;;;;;24.13;17.38;;;;;;;5.92;82.55;99543.28;6200885;23;20076;-74
2022/12/22 11:46:14;;;;;;;31.35;16.77;;;;;;;5.90;82.83;99536.44;6199696;23;20092;-72
2022/12/22 11:49:03;;;;;;;25.17;17.20;;;;;;;6.10;82.06;99540.53;6199967;23;20021;-74
2022/12/22 11:51:45;;;;;;;28.10;18.35;;;;;;;5.81;83.07;99534.75;6185870;23;20029;-74
2022/12/22 11:54:23;;;;;;;17.52;12.68;;;;;;;6.05;82.26;99532.22;6185239;23;20017;-73
2022/12/22 11:57:01;;;;;;;20.67;16.40;;;;;;;6.24;82.16;99537.25;6198106;23;20099;-74
2022/12/22 11:59:44;;;;;;;23.27;16.83;;;;;;;6.08;82.31;99531.03;6198660;23;20017;-74
2022/12/22 12:02:42;;;;;;;29.85;18.48;;;;;;;5.99;82.71;99535.50;6199316;23;20096;-74
2022/12/22 12:05:31;;;;;;;23.30;17.27;;;;;;;6.17;82.32;99535.41;6202245;23;20069;-74
2022/12/22 12:08:22;;;;;;;26.23;18.75;;;;;;;6.06;82.95;99531.19;6202355;23;20048;-74
2022/12/22 12:11:04;;;;;;;23.88;17.00;;;;;;;6.26;81.84;99537.16;6204235;23;20021;-75
2022/12/22 12:13:47;;;;;;;25.02;17.38;;;;;;;6.28;81.93;99535.13;6206121;23;20028;-74
2022/12/22 12:16:13;;;;;;;26.02;17.40;;;;;;;6.29;81.98;99523.50;6203513;23;20080;-74
2022/12/22 12:19:03;;;;;;;25.45;18.08;;;;;;;6.17;82.28;99530.06;6204464;23;20051;-74
2022/12/22 12:21:50;;;;;;;24.05;16.90;;;;;;;6.14;82.41;99533.88;6202597;23;20009;-74
2022/12/22 12:24:17;;;;;;;24.17;18.67;;;;;;;6.17;82.62;99536.22;6204623;23;20037;-73
2022/12/22 12:27:10;;;;;;;24.65;18.13;;;;;;;6.30;82.18;99537.66;6202611;23;20017;-72
2022/12/22 12:29:51;;;;;;;25.98;18.65;;;;;;;6.31;82.36;99526.81;6200875;23;20025;-75
2022/12/22 12:33:06;;;;;;;37.65;29.05;;;;;;;6.27;82.53;99528.16;6197673;23;20407;-74
2022/12/22 12:36:09;;;;;;;28.75;20.52;;;;;;;6.33;81.26;99534.66;6186179;23;20043;-74
2022/12/22 12:38:36;;;;;;;26.70;18.98;;;;;;;6.22;82.23;99533.94;6197064;23;20028;-74
2022/12/22 12:41:32;;;;;;;29.10;19.85;;;;;;;6.23;82.80;99527.59;6194493;23;20033;-74
2022/12/22 12:44:01;;;;;;;25.77;18.92;;;;;;;6.23;82.63;99519.63;6193808;23;20124;-73
2022/12/22 12:46:49;;;;;;;34.72;19.38;;;;;;;6.37;82.36;99525.34;6193232;23;20081;-74
2022/12/22 12:49:35;;;;;;;25.02;18.95;;;;;;;6.52;81.65;99522.88;6194040;23;20021;-74
2022/12/22 12:52:09;;;;;;;24.02;18.25;;;;;;;6.45;82.11;99517.38;6194689;23;20107;-74
2022/12/22 12:54:38;;;;;;;26.77;18.55;;;;;;;6.50;81.65;99511.56;6193835;23;20052;-75
2022/12/22 12:57:20;;;;;;;28.05;18.67;;;;;;;6.61;80.79;99522.75;6194179;23;20052;-74
2022/12/22 12:59:47;;;;;;;27.27;19.92;;;;;;;6.38;81.66;99525.19;6194037;23;20028;-74
2022/12/22 13:02:26;;;;;;;26.48;18.77;;;;;;;6.50;81.79;99523.06;6195868;23;20473;-74
2022/12/22 13:05:11;;;;;;;24.25;17.95;;;;;;;6.47;81.99;99518.06;6192368;23;20044;-75
2022/12/22 13:08:15;;;;;;;26.30;18.60;;;;;;;6.46;81.60;99530.53;6195038;23;20025;-74
2022/12/22 13:10:44;;;;;;;26.67;17.70;;;;;;;6.53;81.54;99533.41;6195581;23;20024;-75
2022/12/22 13:13:32;;;;;;;37.22;19.98;;;;;;;6.65;81.36;99541.91;6193873;23;20047;-75
2022/12/22 13:16:00;;;;;;;27.75;18.55;;;;;;;6.57;80.92;99545.41;6192831;23;20043;-74
2022/12/22 13:18:36;;;;;;;24.27;17.15;;;;;;;6.57;81.59;99548.06;6183571;23;20040;-74
2022/12/22 13:21:15;;;;;;;23.60;17.45;;;;;;;6.53;81.41;99544.06;6195167;23;20017;-75
2022/12/22 13:24:16;;;;;;;24.38;17.67;;;;;;;6.66;80.85;99544.38;6194963;23;20021;-75
2022/12/22 13:26:54;;;;;;;19.25;13.00;;;;;;;6.57;80.86;99557.88;6197311;23;20079;-75
2022/12/22 13:29:21;;;;;;;23.85;17.80;;;;;;;6.71;81.16;99555.41;6184808;23;20029;-74
2022/12/22 13:31:55;;;;;;;24.33;17.38;;;;;;;6.64;80.97;99556.22;6195311;23;20031;-74
2022/12/22 13:34:30;;;;;;;23.08;17.45;;;;;;;6.69;81.25;99565.38;6197602;23;20033;-74
2022/12/22 13:37:01;;;;;;;31.55;22.02;;;;;;;6.73;80.89;99567.72;6195820;23;20044;-74
2022/12/22 13:39:34;;;;;;;24.77;18.48;;;;;;;6.85;80.46;99567.25;6197635;23;20029;-74
2022/12/22 13:42:05;;;;;;;26.30;17.63;;;;;;;6.89;80.96;99570.44;6198996;23;20017;-74
2022/12/22 13:44:33;;;;;;;20.00;16.25;;;;;;;6.92;80.49;99575.44;6197798;23;20059;-75
2022/12/22 13:47:04;;;;;;;26.05;17.42;;;;;;;6.98;79.97;99576.59;6199752;23;20020;-75
2022/12/22 13:49:33;;;;;;;19.33;12.60;;;;;;;7.02;80.11;99576.13;6199109;23;20025;-75
2022/12/22 13:52:20;;;;;;;23.15;17.02;;;;;;;7.09;79.76;99579.78;6198178;23;20025;-74
2022/12/22 13:54:47;;;;;;;23.00;16.92;;;;;;;6.78;80.54;99581.41;6198943;23;20025;-74
2022/12/22 13:57:19;;;;;;;21.88;15.77;;;;;;;7.05;80.19;99583.78;6200899;23;20077;-75
2022/12/22 13:59:49;;;;;;;22.60;16.00;;;;;;;7.06;79.93;99592.63;6199528;23;20025;-73
2022/12/22 14:02:20;;;;;;;21.67;15.55;;;;;;;6.99;79.84;99592.44;6200525;23;20025;-75
2022/12/22 14:05:07;;;;;;;26.67;14.75;;;;;;;6.82;80.56;99598.75;6201483;23;20027;-74
2022/12/22 14:07:34;;;;;;;20.05;14.35;;;;;;;6.86;80.54;99594.75;6199459;23;20017;-75
2022/12/22 14:10:01;;;;;;;18.33;13.98;;;;;;;6.82;80.72;99593.41;6204165;23;20048;-74
2022/12/22 14:12:30;;;;;;;20.20;14.55;;;;;;;6.92;80.64;99600.25;6202598;23;20080;-74
2022/12/22 14:15:00;;;;;;;18.70;13.82;;;;;;;6.84;80.96;99604.72;6202511;23;20025;-74
2022/12/22 14:17:31;;;;;;;18.42;13.48;;;;;;;6.77;81.05;99609.06;6202147;23;20028;-74
2022/12/22 14:20:00;;;;;;;16.23;13.32;;;;;;;6.90;80.89;99612.09;6201348;23;20048;-74
2022/12/22 14:22:32;;;;;;;20.83;14.77;;;;;;;6.55;81.67;99611.31;6201419;23;20396;-74
2022/12/22 14:25:11;;;;;;;19.85;14.02;;;;;;;6.68;81.73;99609.03;6202291;23;20021;-74
2022/12/22 14:27:47;;;;;;;21.30;13.93;;;;;;;6.72;81.37;99625.53;6193552;23;20049;-74
2022/12/22 14:30:34;;;;;;;18.38;13.88;;;;;;;6.76;81.82;99626.88;6202557;23;20025;-75
2022/12/22 14:33:34;;;;;;;19.40;13.32;;;;;;;6.64;82.24;99629.03;6202118;23;20017;-75
2022/12/22 14:36:26;;;;;;;18.20;12.82;;;;;;;6.57;82.35;99630.66;6176897;23;20028;-74
2022/12/22 14:38:58;;;;;;;17.02;13.98;;;;;;;6.55;82.24;99632.63;6199049;23;20028;-74
2022/12/22 14:41:50;;;;;;;18.60;11.73;;;;;;;6.57;82.81;99633.31;6196971;23;20025;-74
2022/12/22 14:44:31;;;;;;;14.20;10.77;;;;;;;6.76;82.50;99639.38;6201587;23;20020;-74
2022/12/22 14:47:11;;;;;;;11.40;8.40;;;;;;;6.69;82.36;99637.34;6173395;23;20017;-74
2022/12/22 14:49:50;;;;;;;16.20;10.93;;;;;;;6.43;82.70;99644.59;6198804;23;20025;-74
2022/12/22 14:52:28;;;;;;;11.85;10.10;;;;;;;6.69;82.33;99647.19;6169765;23;20048;-72
2022/12/22 14:54:55;;;;;;;13.32;9.65;;;;;;;6.58;81.99;99652.81;6183667;23;20049;-74
2022/12/22 14:57:33;;;;;;;15.88;10.07;;;;;;;6.58;82.74;99666.13;6194317;23;20035;-74
2022/12/22 15:00:23;;;;;;;12.80;9.43;;;;;;;6.55;82.17;99669.94;6195905;23;20036;-74
2022/12/22 15:02:56;;;;;;;11.75;8.95;;;;;;;6.42;82.82;99677.53;6195219;23;20091;-74
2022/12/22 15:05:36;;;;;;;10.38;8.02;;;;;;;6.32;83.27;99683.00;6192008;23;20021;-74
2022/12/22 15:08:05;;;;;;;13.80;8.75;;;;;;;6.39;83.44;99683.19;6191224;23;20035;-75
2022/12/22 15:10:41;;;;;;;11.18;8.52;;;;;;;6.58;82.33;99680.28;6190524;23;20036;-73
2022/12/22 15:13:21;;;;;;;9.38;7.57;;;;;;;6.51;82.30;99689.91;6188783;23;20389;-73
2022/12/22 15:15:51;;;;;;;9.07;7.55;;;;;;;6.50;82.82;99692.75;6188755;23;20342;-73
2022/12/22 15:18:23;;;;;;;10.82;7.72;;;;;;;6.61;82.05;99695.97;6186940;23;20044;-73
2022/12/22 15:20:49;;;;;;;16.08;8.02;;;;;;;6.37;82.88;99694.00;6192796;23;20021;-74
2022/12/22 15:23:16;;;;;;;12.52;8.57;;;;;;;6.33;83.20;99702.50;6195841;23;20017;-75
2022/12/22 15:25:43;;;;;;;11.25;8.55;;;;;;;6.62;81.87;99692.28;6181017;23;20025;-74
2022/12/22 15:28:10;;;;;;;10.70;8.55;;;;;;;6.62;81.48;99710.13;6196596;23;20025;-74
2022/12/22 15:30:37;;;;;;;10.43;8.68;;;;;;;6.39;83.05;99707.16;6191884;23;20186;-74
2022/12/22 15:33:10;;;;;;;9.60;7.70;;;;;;;6.56;81.78;99724.06;6200651;23;20029;-75
2022/12/22 15:35:37;;;;;;;10.75;8.85;;;;;;;6.55;81.67;99733.91;6200046;23;20125;-73
2022/12/22 15:38:10;;;;;;;11.38;8.80;;;;;;;6.64;81.81;99737.47;6201160;23;20036;-74